createdAt,value
2023-03-16T00:00:43.002Z,3.85
2023-03-16T00:03:10.322Z,3.88
2023-03-16T00:05:36.958Z,3.92
2023-03-16T00:08:03.983Z,4.20
2023-03-16T00:10:30.903Z,3.65
2023-03-16T00:12:57.289Z,3.70
2023-03-16T00:15:24.548Z,3.75
2023-03-16T00:17:50.946Z,3.75
2023-03-16T00:20:18.211Z,3.95
2023-03-16T00:22:45.033Z,4.30
2023-03-16T00:25:12.505Z,4.10
2023-03-16T00:27:38.980Z,3.95
2023-03-16T00:30:05.974Z,4.40
2023-03-16T00:32:33.623Z,4.03
2023-03-16T00:35:02.083Z,4.38
2023-03-16T00:37:28.814Z,4.50
2023-03-16T00:39:58.521Z,4.00
2023-03-16T00:42:27.514Z,4.00
2023-03-16T00:44:57.537Z,4.72
2023-03-16T00:47:25.204Z,4.07
2023-03-16T00:49:51.618Z,4.47
2023-03-16T00:52:18.266Z,4.55
2023-03-16T00:54:45.659Z,5.03
2023-03-16T00:57:12.846Z,4.15
2023-03-16T00:59:39.534Z,4.65
2023-03-16T01:02:07.048Z,4.57
2023-03-16T01:04:35.911Z,4.70
2023-03-16T01:07:05.719Z,4.55
2023-03-16T01:09:36.760Z,4.57
2023-03-16T01:12:06.185Z,4.80
2023-03-16T01:14:34.852Z,4.70
2023-03-16T01:17:01.879Z,5.10
2023-03-16T01:19:28.584Z,4.53
2023-03-16T01:21:55.016Z,5.15
2023-03-16T01:24:21.453Z,4.35
2023-03-16T01:26:48.009Z,4.95
2023-03-16T01:29:14.700Z,4.57
2023-03-16T01:31:40.987Z,4.60
2023-03-16T01:34:07.322Z,4.70
2023-03-16T01:36:34.123Z,4.70
2023-03-16T01:39:00.438Z,5.10
2023-03-16T01:41:27.186Z,4.13
2023-03-16T01:43:58.230Z,4.53
2023-03-16T01:46:28.432Z,4.60
2023-03-16T01:48:57.765Z,4.63
2023-03-16T01:51:27.192Z,4.63
2023-03-16T01:53:55.647Z,4.10
2023-03-16T01:56:24.681Z,4.72
2023-03-16T01:58:52.128Z,4.85
2023-03-16T02:01:18.830Z,4.55
2023-03-16T02:03:45.563Z,4.78
2023-03-16T02:06:14.658Z,5.18
2023-03-16T02:08:42.879Z,4.50
2023-03-16T02:11:09.803Z,5.25
2023-03-16T02:13:39.166Z,4.80
2023-03-16T02:16:06.347Z,5.25
2023-03-16T02:18:33.209Z,4.45
2023-03-16T02:21:05.442Z,4.90
2023-03-16T02:23:32.720Z,4.65
2023-03-16T02:26:08.419Z,4.78
2023-03-16T02:28:45.112Z,4.70
2023-03-16T02:31:12.369Z,4.75
2023-03-16T02:33:39.996Z,5.10
2023-03-16T02:36:06.584Z,5.53
2023-03-16T02:38:33.034Z,4.72
2023-03-16T02:41:11.636Z,5.13
2023-03-16T02:43:39.021Z,5.38
2023-03-16T02:46:06.032Z,5.35
2023-03-16T02:48:35.241Z,4.72
2023-03-16T02:51:01.666Z,5.18
2023-03-16T02:53:28.067Z,4.95
2023-03-16T02:55:54.438Z,4.90
2023-03-16T02:58:21.186Z,4.82
2023-03-16T03:00:47.642Z,5.00
2023-03-16T03:03:14.302Z,4.53
2023-03-16T03:05:40.848Z,4.93
2023-03-16T03:08:07.431Z,4.22
2023-03-16T03:10:33.790Z,5.13
2023-03-16T03:13:00.132Z,4.90
2023-03-16T03:15:26.499Z,4.72
2023-03-16T03:17:52.826Z,5.45
2023-03-16T03:20:19.816Z,4.63
2023-03-16T03:22:47.189Z,4.65
2023-03-16T03:25:14.573Z,4.30
2023-03-16T03:27:42.551Z,4.60
2023-03-16T03:30:13.350Z,4.93
2023-03-16T03:32:40.145Z,5.05
2023-03-16T03:35:06.824Z,4.93
2023-03-16T03:37:33.222Z,4.53
2023-03-16T03:39:59.629Z,4.60
2023-03-16T03:42:26.117Z,4.90
2023-03-16T03:44:52.855Z,5.13
2023-03-16T03:47:19.696Z,4.88
2023-03-16T03:49:46.074Z,5.20
2023-03-16T03:52:12.480Z,4.65
2023-03-16T03:54:38.844Z,5.75
2023-03-16T03:57:05.677Z,5.22
2023-03-16T03:59:32.098Z,5.65
2023-03-16T04:01:58.485Z,4.97
2023-03-16T04:04:24.937Z,4.68
2023-03-16T04:06:51.584Z,5.28
2023-03-16T04:09:17.917Z,5.43
2023-03-16T04:11:44.307Z,5.88
2023-03-16T04:14:10.824Z,5.38
2023-03-16T04:16:37.396Z,5.55
2023-03-16T04:19:04.385Z,5.60
2023-03-16T04:21:31.209Z,5.22
2023-03-16T04:23:57.630Z,4.82
2023-03-16T04:26:25.698Z,5.60
2023-03-16T04:28:52.796Z,4.65
2023-03-16T04:31:19.337Z,4.90
2023-03-16T04:33:45.801Z,4.90
2023-03-16T04:36:12.211Z,4.90
2023-03-16T04:38:38.681Z,5.50
2023-03-16T04:41:05.631Z,5.40
2023-03-16T04:43:34.503Z,5.07
2023-03-16T04:46:01.549Z,5.13
2023-03-16T04:48:28.745Z,5.03
2023-03-16T04:50:55.248Z,5.57
2023-03-16T04:53:22.067Z,4.68
2023-03-16T04:55:48.930Z,4.53
2023-03-16T04:58:15.424Z,5.00
2023-03-16T05:00:41.868Z,4.57
2023-03-16T05:03:10.385Z,4.93
2023-03-16T05:05:40.249Z,4.60
2023-03-16T05:08:07.230Z,4.40
2023-03-16T05:10:33.656Z,4.15
2023-03-16T05:13:00.544Z,4.63
2023-03-16T05:15:27.289Z,4.65
2023-03-16T05:17:55.176Z,4.80
2023-03-16T05:20:22.436Z,4.50
2023-03-16T05:22:49.163Z,4.78
2023-03-16T05:25:16.311Z,4.90
2023-03-16T05:27:46.609Z,4.82
2023-03-16T05:30:13.725Z,4.95
2023-03-16T05:32:40.324Z,4.30
2023-03-16T05:35:07.204Z,4.60
2023-03-16T05:37:34.659Z,4.38
2023-03-16T05:40:01.532Z,4.63
2023-03-16T05:42:28.027Z,4.80
2023-03-16T05:44:54.604Z,4.60
2023-03-16T05:47:21.089Z,5.22
2023-03-16T05:49:47.512Z,4.50
2023-03-16T05:52:13.884Z,4.93
2023-03-16T05:54:40.279Z,4.82
2023-03-16T05:57:07.101Z,4.65
2023-03-16T05:59:33.457Z,4.18
2023-03-16T06:01:59.801Z,4.65
2023-03-16T06:04:26.943Z,4.28
2023-03-16T06:06:53.281Z,4.43
2023-03-16T06:09:19.604Z,4.30
2023-03-16T06:11:46.044Z,3.95
2023-03-16T06:14:12.379Z,4.80
2023-03-16T06:16:38.773Z,4.60
2023-03-16T06:19:05.152Z,4.50
2023-03-16T06:21:34.608Z,4.68
2023-03-16T06:24:01.667Z,3.90
2023-03-16T06:26:28.092Z,4.85
2023-03-16T06:28:54.596Z,4.45
2023-03-16T06:31:21.112Z,4.15
2023-03-16T06:33:47.609Z,4.13
2023-03-16T06:36:15.057Z,4.05
2023-03-16T06:38:41.416Z,4.03
2023-03-16T06:41:07.865Z,3.90
2023-03-16T06:43:34.248Z,3.47
2023-03-16T06:46:01.569Z,3.83
2023-03-16T06:48:28.385Z,4.13
2023-03-16T06:50:54.754Z,4.13
2023-03-16T06:53:22.302Z,4.18
2023-03-16T06:55:48.718Z,4.47
2023-03-16T06:58:15.050Z,4.60
2023-03-16T07:00:42.174Z,4.22
2023-03-16T07:03:08.604Z,5.00
2023-03-16T07:05:34.988Z,5.30
2023-03-16T07:08:01.337Z,4.13
2023-03-16T07:10:28.107Z,3.70
2023-03-16T07:12:55.769Z,3.83
2023-03-16T07:15:22.434Z,3.63
2023-03-16T07:17:49.048Z,3.67
2023-03-16T07:20:15.493Z,4.07
2023-03-16T07:22:41.915Z,3.92
2023-03-16T07:25:08.729Z,3.85
2023-03-16T07:27:35.089Z,4.20
2023-03-16T07:30:01.434Z,4.40
2023-03-16T07:32:27.932Z,4.18
2023-03-16T07:34:54.353Z,4.60
2023-03-16T07:37:25.463Z,3.92
2023-03-16T07:39:52.120Z,4.28
2023-03-16T07:42:18.763Z,3.90
2023-03-16T07:44:45.132Z,4.25
2023-03-16T07:47:13.195Z,4.68
2023-03-16T07:49:41.471Z,4.63
2023-03-16T07:52:08.017Z,4.05
2023-03-16T07:54:34.439Z,4.45
2023-03-16T07:57:01.298Z,3.78
2023-03-16T07:59:27.765Z,4.45
2023-03-16T08:01:54.093Z,4.57
2023-03-16T08:04:20.407Z,4.35
2023-03-16T08:06:47.944Z,4.00
2023-03-16T08:09:14.406Z,4.78
2023-03-16T08:11:41.551Z,4.53
2023-03-16T08:14:07.928Z,4.30
2023-03-16T08:16:34.377Z,5.53
2023-03-16T08:19:01.288Z,4.60
2023-03-16T08:21:28.402Z,4.13
2023-03-16T08:23:54.780Z,4.20
2023-03-16T08:26:21.274Z,3.72
2023-03-16T08:28:49.946Z,3.90
2023-03-16T08:31:16.324Z,4.30
2023-03-16T08:33:43.790Z,4.20
2023-03-16T08:36:11.967Z,4.05
2023-03-16T08:38:39.989Z,4.68
2023-03-16T08:41:06.552Z,5.05
2023-03-16T08:43:33.613Z,4.25
2023-03-16T08:45:59.938Z,5.20
2023-03-16T08:48:26.642Z,4.57
2023-03-16T08:50:54.089Z,4.10
2023-03-16T08:53:21.058Z,5.10
2023-03-16T08:55:48.394Z,4.22
2023-03-16T08:58:15.400Z,3.97
2023-03-16T09:00:43.892Z,4.40
2023-03-16T09:03:11.853Z,4.35
2023-03-16T09:05:40.737Z,4.32
2023-03-16T09:08:07.104Z,4.53
2023-03-16T09:10:33.748Z,4.15
2023-03-16T09:13:00.117Z,4.05
2023-03-16T09:15:26.877Z,3.95
2023-03-16T09:17:54.443Z,4.15
2023-03-16T09:20:34.837Z,3.67
2023-03-16T09:23:01.331Z,4.30
2023-03-16T09:25:28.220Z,4.05
2023-03-16T09:27:55.663Z,3.90
2023-03-16T09:30:22.056Z,3.95
2023-03-16T09:32:51.326Z,4.25
2023-03-16T09:35:17.825Z,4.57
2023-03-16T09:38:01.151Z,3.83
2023-03-16T09:40:30.966Z,3.67
2023-03-16T09:43:00.492Z,3.60
2023-03-16T09:45:34.327Z,4.07
2023-03-16T09:48:03.336Z,3.63
2023-03-16T09:50:47.066Z,3.75
2023-03-16T09:53:14.364Z,3.45
2023-03-16T09:55:42.884Z,3.80
2023-03-16T09:58:19.581Z,3.60
2023-03-16T10:00:50.886Z,3.78
2023-03-16T10:03:30.240Z,3.92
2023-03-16T10:06:00.905Z,3.60
2023-03-16T10:08:39.145Z,3.55
2023-03-16T10:11:10.847Z,3.20
2023-03-16T10:13:40.399Z,3.55
2023-03-16T10:16:14.204Z,3.00
2023-03-16T10:18:45.011Z,3.42
2023-03-16T10:21:13.285Z,3.15
2023-03-16T10:23:41.960Z,3.03
2023-03-16T10:26:18.780Z,3.00
2023-03-16T10:28:46.393Z,3.10
2023-03-16T10:31:13.908Z,3.03
2023-03-16T10:33:40.523Z,3.25
2023-03-16T10:36:12.874Z,3.08
2023-03-16T10:38:46.835Z,2.90
2023-03-16T10:41:20.188Z,3.13
2023-03-16T10:43:57.564Z,3.05
2023-03-16T10:46:27.773Z,2.95
2023-03-16T10:48:54.794Z,2.97
2023-03-16T10:51:25.207Z,3.17
2023-03-16T10:53:52.004Z,3.10
2023-03-16T10:56:23.822Z,3.00
2023-03-16T10:58:50.206Z,2.83
2023-03-16T11:01:22.239Z,2.55
2023-03-16T11:03:51.294Z,2.83
2023-03-16T11:06:30.598Z,3.00
2023-03-16T11:09:19.712Z,2.40
2023-03-16T11:11:49.784Z,2.72
2023-03-16T11:14:19.683Z,2.90
2023-03-16T11:16:47.851Z,2.67
2023-03-16T11:19:29.268Z,2.83
2023-03-16T11:22:14.343Z,3.10
2023-03-16T11:24:50.887Z,3.10
2023-03-16T11:27:31.365Z,2.85
2023-03-16T11:29:59.569Z,2.97
2023-03-16T11:32:27.932Z,2.80
2023-03-16T11:34:54.234Z,2.67
2023-03-16T11:37:28.103Z,3.08
2023-03-16T11:40:15.628Z,2.70
2023-03-16T11:42:50.084Z,2.60
2023-03-16T11:45:28.713Z,2.88
2023-03-16T11:48:01.700Z,2.80
2023-03-16T11:50:37.055Z,2.35
2023-03-16T11:53:04.937Z,2.30
2023-03-16T11:55:39.533Z,2.50
2023-03-16T11:58:24.492Z,2.72
2023-03-16T12:01:00.030Z,2.50
2023-03-16T12:03:40.351Z,2.55
2023-03-16T12:06:25.640Z,2.47
2023-03-16T12:08:53.613Z,2.67
2023-03-16T12:11:25.048Z,2.55
2023-03-16T12:13:52.378Z,2.63
2023-03-16T12:16:31.018Z,2.60
2023-03-16T12:21:28.114Z,2.10
2023-03-16T12:23:57.111Z,2.28
2023-03-16T12:26:25.513Z,2.42
2023-03-16T12:28:52.965Z,2.55
2023-03-16T12:31:28.592Z,2.20
2023-03-16T12:34:04.058Z,1.88
2023-03-16T12:36:53.008Z,2.28
2023-03-16T12:39:22.221Z,1.90
2023-03-16T12:41:49.226Z,2.20
2023-03-16T12:44:19.257Z,2.38
2023-03-16T12:46:53.394Z,2.22
2023-03-16T12:49:21.169Z,2.10
2023-03-16T12:51:58.295Z,2.20
2023-03-16T12:54:25.525Z,2.00
2023-03-16T12:57:08.264Z,2.22
2023-03-16T12:59:38.440Z,2.40
2023-03-16T13:02:06.740Z,2.17
2023-03-16T13:04:44.456Z,1.80
2023-03-16T13:07:17.138Z,1.77
2023-03-16T13:09:49.293Z,1.70
2023-03-16T13:12:23.438Z,1.50
2023-03-16T13:14:54.637Z,1.80
2023-03-16T13:17:21.196Z,1.42
2023-03-16T13:20:11.856Z,1.77
2023-03-16T13:22:43.205Z,1.77
2023-03-16T13:25:18.653Z,1.50
2023-03-16T13:27:49.260Z,1.60
2023-03-16T13:30:17.964Z,1.55
2023-03-16T13:32:45.070Z,2.05
2023-03-16T13:35:13.970Z,1.42
2023-03-16T13:37:42.227Z,1.70
2023-03-16T13:40:17.353Z,1.60
2023-03-16T13:42:46.665Z,1.77
2023-03-16T13:45:15.260Z,1.73
2023-03-16T13:47:42.626Z,1.85
2023-03-16T13:50:13.742Z,1.70
2023-03-16T13:52:41.461Z,1.40
2023-03-16T13:55:16.161Z,1.40
2023-03-16T13:57:44.118Z,1.27
2023-03-16T14:00:18.030Z,1.77
2023-03-16T14:02:45.234Z,1.65
2023-03-16T14:05:12.838Z,1.83
2023-03-16T14:07:39.544Z,1.63
2023-03-16T14:10:06.584Z,1.42
2023-03-16T14:12:32.882Z,1.70
2023-03-16T14:14:59.622Z,1.85
2023-03-16T14:17:28.162Z,1.67
2023-03-16T14:19:59.575Z,1.50
2023-03-16T14:22:33.936Z,1.42
2023-03-16T14:25:01.323Z,1.50
2023-03-16T14:27:39.791Z,1.42
2023-03-16T14:30:16.916Z,1.50
2023-03-16T14:32:53.896Z,1.67
2023-03-16T14:35:21.469Z,1.42
2023-03-16T14:37:51.867Z,1.40
2023-03-16T14:40:30.792Z,1.55
2023-03-16T14:42:58.815Z,1.50
2023-03-16T14:45:31.415Z,1.48
2023-03-16T14:48:02.167Z,1.20
2023-03-16T14:50:28.626Z,1.55
2023-03-16T14:52:55.913Z,1.63
2023-03-16T14:55:23.909Z,2.03
2023-03-16T14:57:51.399Z,1.70
2023-03-16T15:00:18.716Z,1.58
2023-03-16T15:02:51.128Z,1.58
2023-03-16T15:05:21.532Z,1.70
2023-03-16T15:07:51.334Z,1.30
2023-03-16T15:10:27.088Z,1.50
2023-03-16T15:13:04.400Z,1.25
2023-03-16T15:15:30.964Z,1.48
2023-03-16T15:17:57.298Z,1.30
2023-03-16T15:20:29.821Z,1.30
2023-03-16T15:22:58.859Z,1.55
2023-03-16T15:25:28.422Z,1.40
2023-03-16T15:27:54.820Z,1.40
2023-03-16T15:30:27.274Z,1.50
2023-03-16T15:32:54.126Z,1.40
2023-03-16T15:35:21.294Z,1.30
2023-03-16T15:37:48.562Z,1.10
2023-03-16T15:40:20.627Z,1.40
2023-03-16T15:42:47.149Z,1.55
2023-03-16T15:45:15.150Z,1.13
2023-03-16T15:47:42.289Z,1.10
2023-03-16T15:50:11.247Z,1.20
2023-03-16T15:52:38.511Z,1.60
2023-03-16T15:55:08.385Z,1.50
2023-03-16T15:57:35.415Z,1.57
2023-03-16T16:00:02.015Z,1.70
2023-03-16T16:02:29.828Z,1.30
2023-03-16T16:04:57.080Z,1.20
2023-03-16T16:07:23.442Z,1.48
2023-03-16T16:09:50.024Z,1.52
2023-03-16T16:12:16.652Z,1.25
2023-03-16T16:14:43.049Z,1.50
2023-03-16T16:17:15.692Z,1.38
2023-03-16T16:19:42.009Z,1.40
2023-03-16T16:22:11.821Z,1.38
2023-03-16T16:24:38.578Z,1.43
2023-03-16T16:27:05.468Z,1.65
2023-03-16T16:29:33.814Z,1.40
2023-03-16T16:32:00.423Z,1.65
2023-03-16T16:34:28.100Z,1.27
2023-03-16T16:36:55.219Z,1.48
2023-03-16T16:39:22.207Z,1.33
2023-03-16T16:41:49.778Z,1.70
2023-03-16T16:44:21.347Z,1.80
2023-03-16T16:46:49.119Z,1.60
2023-03-16T16:49:20.150Z,2.03
2023-03-16T16:51:46.885Z,1.40
2023-03-16T16:54:14.959Z,2.33
2023-03-16T16:56:42.180Z,2.08
2023-03-16T16:59:22.863Z,1.77
2023-03-16T17:01:53.909Z,1.80
2023-03-16T17:04:23.364Z,1.80
2023-03-16T17:06:55.305Z,1.42
2023-03-16T17:09:22.334Z,1.60
2023-03-16T17:11:48.956Z,1.70
2023-03-16T17:14:20.745Z,1.95
2023-03-16T17:16:51.095Z,1.80
2023-03-16T17:19:27.700Z,1.55
2023-03-16T17:21:55.522Z,1.63
2023-03-16T17:24:22.746Z,1.48
2023-03-16T17:26:51.339Z,1.50
2023-03-16T17:29:23.033Z,1.50
2023-03-16T17:31:49.731Z,1.65
2023-03-16T17:34:26.515Z,1.30
2023-03-16T17:36:53.356Z,1.30
2023-03-16T17:39:21.158Z,1.50
2023-03-16T17:42:07.115Z,1.10
2023-03-16T17:44:35.061Z,1.33
2023-03-16T17:47:01.638Z,1.25
2023-03-16T17:49:28.740Z,1.30
2023-03-16T17:51:55.468Z,1.25
2023-03-16T17:54:21.909Z,1.20
2023-03-16T17:56:50.361Z,1.20
2023-03-16T17:59:18.036Z,1.40
2023-03-16T18:01:45.851Z,1.63
2023-03-16T18:04:16.697Z,1.80
2023-03-16T18:09:14.792Z,2.25
2023-03-16T18:11:46.392Z,2.63
2023-03-16T18:14:20.606Z,2.60
2023-03-16T18:16:47.136Z,2.45
2023-03-16T18:19:18.688Z,2.85
2023-03-16T18:21:45.665Z,2.90
2023-03-16T18:24:19.620Z,2.92
2023-03-16T18:26:46.086Z,2.67
2023-03-16T18:29:13.966Z,3.42
2023-03-16T18:31:41.886Z,4.20
2023-03-16T18:34:11.497Z,5.28
2023-03-16T18:36:38.240Z,5.43
2023-03-16T18:39:06.314Z,8.15
2023-03-16T18:41:34.058Z,5.63
2023-03-16T18:44:16.861Z,7.13
2023-03-16T18:46:44.765Z,7.30
2023-03-16T18:49:27.077Z,9.93
2023-03-16T18:51:53.961Z,4.25
2023-03-16T18:54:24.842Z,4.10
2023-03-16T18:59:17.648Z,3.00
2023-03-16T19:01:44.879Z,3.38
2023-03-16T19:04:30.725Z,3.20
2023-03-16T19:06:57.536Z,2.67
2023-03-16T19:09:25.476Z,3.00
2023-03-16T19:11:52.138Z,2.33
2023-03-16T19:14:19.872Z,3.17
2023-03-16T19:16:46.655Z,2.67
2023-03-16T19:19:13.384Z,2.78
2023-03-16T19:21:39.782Z,3.83
2023-03-16T19:24:06.689Z,7.78
2023-03-16T19:26:33.762Z,4.57
2023-03-16T19:29:00.838Z,2.53
2023-03-16T19:31:28.193Z,2.30
2023-03-16T19:33:54.816Z,1.92
2023-03-16T19:36:30.297Z,1.73
2023-03-16T19:38:57.180Z,2.35
2023-03-16T19:41:26.918Z,1.88
2023-03-16T19:43:54.351Z,2.13
2023-03-16T19:46:21.450Z,2.40
2023-03-16T19:48:47.799Z,2.83
2023-03-16T19:51:15.468Z,3.30
2023-03-16T19:53:42.049Z,4.75
2023-03-16T19:56:12.485Z,3.42
2023-03-16T19:58:39.267Z,4.07
2023-03-16T20:01:06.419Z,3.70
2023-03-16T20:03:34.719Z,4.07
2023-03-16T20:06:01.179Z,7.15
2023-03-16T20:08:28.795Z,5.22
2023-03-16T20:10:58.954Z,6.40
2023-03-16T20:13:25.608Z,6.38
2023-03-16T20:15:52.031Z,4.80
2023-03-16T20:18:18.964Z,7.30
2023-03-16T20:20:46.057Z,4.15
2023-03-16T20:23:18.623Z,5.72
2023-03-16T20:25:45.099Z,8.23
2023-03-16T20:28:16.091Z,8.02
2023-03-16T20:30:42.670Z,12.93
2023-03-16T20:33:15.437Z,7.30
2023-03-16T20:35:41.792Z,4.80
2023-03-16T20:38:12.821Z,2.67
2023-03-16T20:40:43.033Z,2.58
2023-03-16T20:43:18.614Z,2.30
2023-03-16T20:45:44.982Z,2.80
2023-03-16T20:48:15.481Z,5.95
2023-03-16T20:50:41.906Z,6.43
2023-03-16T20:53:08.619Z,4.82
2023-03-16T20:55:36.046Z,3.38
2023-03-16T20:58:05.666Z,2.90
2023-03-16T21:00:34.716Z,2.45
2023-03-16T21:03:01.871Z,2.63
2023-03-16T21:05:28.609Z,2.10
2023-03-16T21:07:55.103Z,2.30
2023-03-16T21:10:23.791Z,2.40
2023-03-16T21:12:52.093Z,2.22
2023-03-16T21:15:29.644Z,2.60
2023-03-16T21:17:57.564Z,2.25
2023-03-16T21:20:24.482Z,2.35
2023-03-16T21:22:50.768Z,2.30
2023-03-16T21:25:21.849Z,2.20
2023-03-16T21:27:49.659Z,2.05
2023-03-16T21:30:22.559Z,2.10
2023-03-16T21:32:50.164Z,2.10
2023-03-16T21:35:17.070Z,1.80
2023-03-16T21:37:43.398Z,1.65
2023-03-16T21:40:18.051Z,1.90
2023-03-16T21:42:47.336Z,1.95
2023-03-16T21:45:13.902Z,1.80
2023-03-16T21:47:41.268Z,1.90
2023-03-16T21:50:18.823Z,1.75
2023-03-16T21:52:45.185Z,1.92
2023-03-16T21:55:38.672Z,1.98
2023-03-16T21:58:06.047Z,2.22
2023-03-16T22:00:33.173Z,2.10
2023-03-16T22:03:00.199Z,2.35
2023-03-16T22:05:29.464Z,2.00
2023-03-16T22:07:57.974Z,1.80
2023-03-16T22:10:27.549Z,1.80
2023-03-16T22:12:54.664Z,2.05
2023-03-16T22:15:21.915Z,1.90
2023-03-16T22:17:48.260Z,1.80
2023-03-16T22:20:25.612Z,1.63
2023-03-16T22:22:55.135Z,1.80
2023-03-16T22:25:23.426Z,1.95
2023-03-16T22:27:50.187Z,1.90
2023-03-16T22:30:34.713Z,1.70
2023-03-16T22:33:01.105Z,1.85
2023-03-16T22:35:32.256Z,2.10
2023-03-16T22:38:00.430Z,1.90
2023-03-16T22:40:29.170Z,1.90
2023-03-16T22:42:56.341Z,1.90
2023-03-16T22:45:24.211Z,2.38
2023-03-16T22:47:50.766Z,1.90
2023-03-16T22:50:17.861Z,2.25
2023-03-16T22:52:46.226Z,1.95
2023-03-16T22:55:18.001Z,2.33
2023-03-16T22:57:44.654Z,2.20
2023-03-16T23:00:11.761Z,2.40
2023-03-16T23:02:38.701Z,2.40
2023-03-16T23:05:20.633Z,3.35
2023-03-16T23:07:47.043Z,2.17
2023-03-16T23:10:17.361Z,2.47
2023-03-16T23:12:44.053Z,2.63
2023-03-16T23:15:31.246Z,2.50
2023-03-16T23:17:57.981Z,2.78
2023-03-16T23:20:27.172Z,2.40
2023-03-16T23:22:53.914Z,2.40
2023-03-16T23:25:20.820Z,2.78
2023-03-16T23:27:47.611Z,2.47
2023-03-16T23:30:18.751Z,2.40
2023-03-16T23:32:45.423Z,2.47
2023-03-16T23:35:16.615Z,2.60
2023-03-16T23:37:42.908Z,2.38
2023-03-16T23:40:10.166Z,2.90
2023-03-16T23:42:36.548Z,2.80
2023-03-16T23:45:09.069Z,2.15
2023-03-16T23:47:35.475Z,2.28
2023-03-16T23:50:01.860Z,2.65
2023-03-16T23:52:28.218Z,2.60
2023-03-16T23:54:54.807Z,2.65
2023-03-16T23:57:21.159Z,2.60
2023-03-16T23:59:47.447Z,2.67
